Time;durP1;ratioP1;P1;durP2;ratioP2;P2;SDS_P1;SDS_P2;PMS_P1;PMS_P2;Temp;Humidity;BMP_temperature;BMP_pressure;BME280_temperature;BME280_humidity;BME280_pressure;Samples;Min_cycle;Max_cycle;Signal;HPM_P1;HPM_P2
2021/03/17 00:00:48;;;;;;;1.00;0.30;;;5.30;99.90;;;;;;5064607;28;20063;-65
2021/03/17 00:03:14;;;;;;;4.82;0.35;;;5.20;99.90;;;;;;5066355;28;20040;-65
2021/03/17 00:05:41;;;;;;;3.20;0.30;;;5.20;99.90;;;;;;5063563;28;20071;-65
2021/03/17 00:08:07;;;;;;;1.13;0.20;;;5.30;99.90;;;;;;5061744;28;20036;-65
2021/03/17 00:10:36;;;;;;;0.82;0.20;;;5.30;99.90;;;;;;5061645;28;20514;-65
2021/03/17 00:13:03;;;;;;;1.58;0.30;;;5.30;99.90;;;;;;5064138;28;20039;-65
2021/03/17 00:15:41;;;;;;;1.67;0.43;;;5.30;99.90;;;;;;5064284;28;20441;-65
2021/03/17 00:18:10;;;;;;;1.05;0.20;;;5.30;99.90;;;;;;5066289;28;20119;-65
2021/03/17 00:20:36;;;;;;;3.22;0.60;;;5.30;99.90;;;;;;5062119;28;20063;-65
2021/03/17 00:23:02;;;;;;;1.85;0.20;;;5.30;99.90;;;;;;5067009;28;20483;-65
2021/03/17 00:25:34;;;;;;;2.75;0.30;;;5.30;99.90;;;;;;5066315;28;20041;-65
2021/03/17 00:28:01;;;;;;;2.65;0.30;;;5.20;99.90;;;;;;5065536;28;20036;-65
2021/03/17 00:30:29;;;;;;;3.90;0.30;;;5.20;99.90;;;;;;5062260;28;20048;-65
2021/03/17 00:32:56;;;;;;;5.10;1.10;;;5.30;99.90;;;;;;5066533;28;20411;-65
2021/03/17 00:35:22;;;;;;;2.70;0.50;;;5.30;99.90;;;;;;5066951;28;20479;-65
2021/03/17 00:37:48;;;;;;;4.03;0.43;;;5.30;99.90;;;;;;5067033;28;20487;-65
2021/03/17 00:40:14;;;;;;;2.03;0.30;;;5.30;99.90;;;;;;5063896;28;20063;-65
2021/03/17 00:42:41;;;;;;;2.97;0.40;;;5.30;99.90;;;;;;5064724;28;20057;-65
2021/03/17 00:45:07;;;;;;;1.90;0.25;;;5.30;99.90;;;;;;5070142;28;20495;-65
2021/03/17 00:47:33;;;;;;;3.55;0.40;;;5.30;99.90;;;;;;5065261;28;20036;-65
2021/03/17 00:49:59;;;;;;;1.92;0.40;;;5.30;99.90;;;;;;5064143;28;20075;-65
2021/03/17 00:52:25;;;;;;;2.33;0.30;;;5.30;99.90;;;;;;5065820;28;20435;-65
2021/03/17 00:54:51;;;;;;;4.13;0.38;;;5.40;99.90;;;;;;5063218;28;20056;-65
2021/03/17 00:57:17;;;;;;;3.60;0.30;;;5.30;99.90;;;;;;5066552;28;20108;-65
2021/03/17 00:59:42;;;;;;;3.80;0.52;;;5.30;99.90;;;;;;5066357;28;20107;-65
2021/03/17 01:02:08;;;;;;;3.20;0.65;;;5.30;99.90;;;;;;5063361;28;20098;-65
2021/03/17 01:04:34;;;;;;;2.65;0.70;;;5.30;99.90;;;;;;5066558;28;20126;-65
2021/03/17 01:06:59;;;;;;;2.40;0.60;;;5.30;99.90;;;;;;5062206;28;20041;-65
2021/03/17 01:09:25;;;;;;;3.13;0.60;;;5.30;99.90;;;;;;5061455;28;20044;-65
2021/03/17 01:11:51;;;;;;;2.38;0.50;;;5.30;99.90;;;;;;5062210;28;20041;-65
2021/03/17 01:14:16;;;;;;;5.00;0.90;;;5.30;99.90;;;;;;5063585;28;20040;-65
2021/03/17 01:16:42;;;;;;;5.85;0.90;;;5.30;99.90;;;;;;5065634;28;20078;-65
2021/03/17 01:19:08;;;;;;;3.58;0.90;;;5.30;99.90;;;;;;5062286;28;20044;-65
2021/03/17 01:21:33;;;;;;;4.82;0.90;;;5.30;99.90;;;;;;5060243;28;20032;-65
2021/03/17 01:24:01;;;;;;;2.95;0.90;;;5.30;99.90;;;;;;5061765;28;20119;-65
2021/03/17 01:26:26;;;;;;;3.78;0.90;;;5.30;99.90;;;;;;5066897;28;20443;-65
2021/03/17 01:28:52;;;;;;;4.72;1.10;;;5.20;99.90;;;;;;5068031;28;20048;-65
2021/03/17 01:31:18;;;;;;;3.92;0.60;;;5.20;99.90;;;;;;5066015;28;20050;-65
2021/03/17 01:33:44;;;;;;;3.95;0.80;;;5.30;99.90;;;;;;5066087;28;20040;-65
2021/03/17 01:36:10;;;;;;;3.42;0.88;;;5.20;99.90;;;;;;5065453;28;20037;-65
2021/03/17 01:38:35;;;;;;;1.67;0.52;;;5.20;99.90;;;;;;5062848;28;20040;-65
2021/03/17 01:41:02;;;;;;;3.30;0.60;;;5.20;99.90;;;;;;5047845;28;20044;-65
2021/03/17 01:43:27;;;;;;;2.47;0.50;;;5.30;99.90;;;;;;5065091;28;20687;-65
2021/03/17 01:45:53;;;;;;;0.90;0.50;;;5.20;99.90;;;;;;5066275;28;20066;-65
2021/03/17 01:48:19;;;;;;;5.03;0.50;;;5.20;99.90;;;;;;5063935;28;20152;-65
2021/03/17 01:50:52;;;;;;;3.05;0.68;;;5.20;99.90;;;;;;5067727;28;20124;-65
2021/03/17 01:53:24;;;;;;;5.13;0.60;;;5.20;99.90;;;;;;5068571;28;20123;-65
2021/03/17 01:55:50;;;;;;;2.67;0.50;;;5.10;99.90;;;;;;5070259;28;20032;-65
2021/03/17 01:58:18;;;;;;;5.82;0.63;;;5.10;99.90;;;;;;5068140;28;20403;-65
2021/03/17 02:00:44;;;;;;;3.10;0.50;;;5.10;99.90;;;;;;5066237;28;20040;-65
2021/03/17 02:03:09;;;;;;;4.60;0.63;;;5.10;99.90;;;;;;5065030;28;20037;-65
2021/03/17 02:05:48;;;;;;;5.10;0.40;;;5.10;99.90;;;;;;5066263;28;20051;-65
2021/03/17 02:08:21;;;;;;;5.03;0.65;;;5.00;99.90;;;;;;5066459;28;20486;-65
2021/03/17 02:10:47;;;;;;;2.83;0.40;;;5.00;99.90;;;;;;5065258;28;20053;-65
2021/03/17 02:13:35;;;;;;;5.90;0.75;;;5.00;99.90;;;;;;5065502;28;20036;-65
2021/03/17 02:16:11;;;;;;;2.60;0.60;;;5.10;99.90;;;;;;5064794;28;20682;-65
2021/03/17 02:19:05;;;;;;;3.25;0.73;;;5.00;99.90;;;;;;5066137;28;20041;-65
2021/03/17 02:21:33;;;;;;;4.55;0.60;;;5.00;99.90;;;;;;5055053;28;20052;-65
2021/03/17 02:24:09;;;;;;;5.93;0.60;;;5.00;99.90;;;;;;5069433;28;20047;-65
2021/03/17 02:26:56;;;;;;;6.68;1.00;;;5.00;99.90;;;;;;5059334;28;20036;-65
2021/03/17 02:30:04;;;;;;;4.90;1.15;;;5.00;99.90;;;;;;5063068;28;20518;-65
2021/03/17 02:33:07;;;;;;;5.20;0.60;;;5.00;99.90;;;;;;5030705;28;20081;-65
2021/03/17 02:35:35;;;;;;;6.10;0.60;;;5.00;99.90;;;;;;4969707;28;20525;-65
2021/03/17 02:38:04;;;;;;;10.63;0.93;;;5.00;99.90;;;;;;5047698;28;20044;-65
2021/03/17 02:40:35;;;;;;;6.78;0.55;;;5.00;99.90;;;;;;5066907;28;20112;-65
2021/03/17 02:43:09;;;;;;;4.55;0.65;;;4.90;99.90;;;;;;5065977;28;20542;-65
2021/03/17 02:45:39;;;;;;;5.55;0.70;;;4.90;99.90;;;;;;5068025;28;20040;-65
2021/03/17 02:48:17;;;;;;;3.78;0.43;;;4.80;99.90;;;;;;5065632;28;20052;-65
2021/03/17 02:50:45;;;;;;;9.23;0.88;;;4.80;99.90;;;;;;5064682;28;20512;-65
2021/03/17 02:53:13;;;;;;;3.55;0.40;;;4.80;99.90;;;;;;5068315;28;20124;-65
2021/03/17 02:55:47;;;;;;;8.73;0.68;;;4.70;99.90;;;;;;5065972;28;20036;-65
2021/03/17 02:58:14;;;;;;;6.90;0.77;;;4.70;99.90;;;;;;5065785;28;20044;-65
2021/03/17 03:00:41;;;;;;;4.65;0.38;;;4.70;99.90;;;;;;5063971;28;20679;-65
2021/03/17 03:03:08;;;;;;;8.93;2.35;;;4.70;99.90;;;;;;5067521;28;20072;-65
2021/03/17 03:05:34;;;;;;;6.00;0.50;;;4.70;99.90;;;;;;5067725;28;20099;-65
2021/03/17 03:08:00;;;;;;;9.75;0.85;;;4.70;99.90;;;;;;5062108;28;20039;-65
2021/03/17 03:10:29;;;;;;;6.65;1.25;;;4.70;99.90;;;;;;5065537;28;20059;-65
2021/03/17 03:12:56;;;;;;;6.70;0.55;;;4.70;99.90;;;;;;5067551;28;20180;-65
2021/03/17 03:15:26;;;;;;;4.75;0.60;;;4.60;99.90;;;;;;5064363;28;20040;-65
2021/03/17 03:17:54;;;;;;;6.65;0.95;;;4.60;99.90;;;;;;5064547;28;20113;-65
2021/03/17 03:20:23;;;;;;;6.65;0.60;;;4.50;99.90;;;;;;5065970;28;20512;-65
2021/03/17 03:22:50;;;;;;;10.93;1.42;;;4.50;99.90;;;;;;5063977;28;20036;-65
2021/03/17 03:25:16;;;;;;;5.22;0.65;;;4.50;99.90;;;;;;5063594;28;20043;-65
2021/03/17 03:27:43;;;;;;;3.90;1.20;;;4.50;99.90;;;;;;5064712;28;21168;-65
2021/03/17 03:30:12;;;;;;;3.90;0.43;;;4.50;99.90;;;;;;5064061;28;20039;-65
2021/03/17 03:32:40;;;;;;;5.28;1.00;;;4.50;99.90;;;;;;5068247;28;20048;-65
2021/03/17 03:35:08;;;;;;;3.53;0.32;;;4.50;99.90;;;;;;5066736;28;20036;-65
2021/03/17 03:37:35;;;;;;;4.13;0.82;;;4.40;99.90;;;;;;5065634;28;20041;-65
2021/03/17 03:40:07;;;;;;;5.32;0.50;;;4.40;99.90;;;;;;5048446;28;20043;-65
2021/03/17 03:42:32;;;;;;;7.95;0.70;;;4.30;99.90;;;;;;5066078;28;20037;-65
2021/03/17 03:44:58;;;;;;;8.60;1.05;;;4.30;99.90;;;;;;5068771;28;20082;-65
2021/03/17 03:47:26;;;;;;;7.65;0.80;;;4.30;99.90;;;;;;5067340;28;20112;-65
2021/03/17 03:49:52;;;;;;;5.07;1.80;;;4.20;99.90;;;;;;5062039;28;20040;-65
2021/03/17 03:52:27;;;;;;;6.57;1.05;;;4.20;99.90;;;;;;5064678;28;20045;-65
2021/03/17 03:55:03;;;;;;;3.70;0.60;;;4.20;99.90;;;;;;5063481;28;20032;-65
2021/03/17 03:57:32;;;;;;;4.20;0.70;;;4.10;99.90;;;;;;5067266;28;20040;-65
2021/03/17 04:00:05;;;;;;;5.07;0.50;;;4.10;99.90;;;;;;5064529;28;20036;-65
2021/03/17 04:02:36;;;;;;;4.80;0.52;;;4.10;99.90;;;;;;5063231;28;20037;-65
2021/03/17 04:05:03;;;;;;;2.63;0.50;;;4.10;99.90;;;;;;5066654;28;20033;-65
2021/03/17 04:07:32;;;;;;;6.47;0.60;;;4.00;99.90;;;;;;5066498;28;20044;-65
2021/03/17 04:10:07;;;;;;;6.63;0.70;;;4.00;99.90;;;;;;5064367;28;20493;-65
2021/03/17 04:12:41;;;;;;;6.43;0.80;;;4.00;99.90;;;;;;5066860;28;20074;-65
2021/03/17 04:15:08;;;;;;;6.55;0.70;;;4.00;99.90;;;;;;5065327;28;20104;-65
2021/03/17 04:17:42;;;;;;;4.95;0.70;;;4.00;99.90;;;;;;5062556;28;20059;-65
2021/03/17 04:20:11;;;;;;;5.82;0.70;;;4.00;99.90;;;;;;5065459;28;20055;-65
2021/03/17 04:22:42;;;;;;;4.28;0.88;;;3.90;99.90;;;;;;5066939;28;20033;-65
2021/03/17 04:25:10;;;;;;;5.78;0.80;;;3.90;99.90;;;;;;5064903;28;20070;-65
2021/03/17 04:27:37;;;;;;;3.67;0.68;;;3.90;99.90;;;;;;5066828;28;20036;-65
2021/03/17 04:30:05;;;;;;;6.85;0.90;;;3.90;99.90;;;;;;5062705;28;20045;-65
2021/03/17 04:32:32;;;;;;;7.75;1.05;;;3.90;99.90;;;;;;5062448;28;20044;-65
2021/03/17 04:34:59;;;;;;;5.55;0.80;;;3.80;99.90;;;;;;5065022;28;20037;-65
2021/03/17 04:37:28;;;;;;;3.15;0.60;;;3.80;99.90;;;;;;5047107;28;20032;-65
2021/03/17 04:39:56;;;;;;;4.40;0.80;;;3.80;99.90;;;;;;5065187;28;20467;-65
2021/03/17 04:42:23;;;;;;;4.00;0.70;;;3.40;99.90;;;;;;5068231;28;20059;-65
2021/03/17 04:44:49;;;;;;;8.68;1.20;;;3.80;99.90;;;;;;5063860;28;20045;-65
2021/03/17 04:47:16;;;;;;;5.07;1.40;;;3.80;99.90;;;;;;5063168;28;20033;-65
2021/03/17 04:49:44;;;;;;;10.57;1.17;;;3.80;99.90;;;;;;5060442;28;20477;-65
2021/03/17 04:52:14;;;;;;;6.25;1.20;;;3.80;99.90;;;;;;5067268;28;20068;-65
2021/03/17 04:54:40;;;;;;;7.93;0.70;;;3.80;99.90;;;;;;5068452;28;20033;-65
2021/03/17 04:57:13;;;;;;;5.85;1.17;;;3.90;99.90;;;;;;5066790;28;20135;-65
2021/03/17 04:59:41;;;;;;;6.18;0.82;;;3.80;99.90;;;;;;5066623;28;20040;-65
2021/03/17 05:02:10;;;;;;;5.95;0.90;;;3.90;99.90;;;;;;5067883;28;20490;-65
2021/03/17 05:04:37;;;;;;;7.55;0.77;;;3.90;99.90;;;;;;5069813;28;20049;-65
2021/03/17 05:07:03;;;;;;;4.07;1.00;;;3.90;99.90;;;;;;5069997;28;20036;-65
2021/03/17 05:09:30;;;;;;;3.95;0.60;;;3.90;99.90;;;;;;5069846;28;20142;-65
2021/03/17 05:12:00;;;;;;;6.57;0.90;;;3.90;99.90;;;;;;5069581;28;20064;-65
2021/03/17 05:14:26;;;;;;;8.13;1.20;;;4.00;99.90;;;;;;5069121;28;20135;-65
2021/03/17 05:16:52;;;;;;;4.85;0.75;;;4.00;99.90;;;;;;5069481;28;20044;-65
2021/03/17 05:19:19;;;;;;;5.82;0.93;;;4.00;99.90;;;;;;5068557;28;20036;-65
2021/03/17 05:21:46;;;;;;;4.05;0.82;;;4.00;99.90;;;;;;5068919;28;20070;-65
2021/03/17 05:24:13;;;;;;;4.75;0.60;;;4.00;99.90;;;;;;5066261;28;20056;-65
2021/03/17 05:26:40;;;;;;;5.75;0.82;;;4.00;99.90;;;;;;5066711;28;20089;-65
2021/03/17 05:29:07;;;;;;;5.32;0.88;;;4.00;99.90;;;;;;5067354;28;20037;-65
2021/03/17 05:31:34;;;;;;;7.50;1.80;;;3.90;99.90;;;;;;5066211;28;20040;-65
2021/03/17 05:34:01;;;;;;;3.17;0.68;;;3.90;99.90;;;;;;5064227;28;20036;-65
2021/03/17 05:36:27;;;;;;;6.05;0.70;;;3.90;99.90;;;;;;5063902;28;20075;-65
2021/03/17 05:38:53;;;;;;;5.55;1.00;;;3.90;99.90;;;;;;5065995;28;20100;-65
2021/03/17 05:41:20;;;;;;;7.78;1.35;;;3.90;99.90;;;;;;5062815;28;20055;-65
2021/03/17 05:43:48;;;;;;;9.10;0.80;;;3.90;99.90;;;;;;5063250;28;20041;-65
2021/03/17 05:46:14;;;;;;;8.15;0.68;;;3.90;99.90;;;;;;5066712;28;20090;-65
2021/03/17 05:48:41;;;;;;;5.32;1.67;;;3.90;99.90;;;;;;5071056;28;20223;-65
2021/03/17 05:51:08;;;;;;;7.50;2.25;;;3.90;99.90;;;;;;5069465;28;20055;-65
2021/03/17 05:53:34;;;;;;;5.15;0.80;;;4.00;99.90;;;;;;5069730;28;20437;-65
2021/03/17 05:56:01;;;;;;;4.50;0.68;;;3.90;99.90;;;;;;5065180;28;20394;-65
2021/03/17 05:58:28;;;;;;;4.35;0.65;;;4.00;99.90;;;;;;5067226;28;20047;-65
2021/03/17 06:00:54;;;;;;;3.08;0.40;;;3.90;99.90;;;;;;5050447;28;20476;-65
2021/03/17 06:03:21;;;;;;;3.22;0.50;;;3.90;99.90;;;;;;5063829;28;20098;-65
2021/03/17 06:05:47;;;;;;;5.05;0.43;;;3.90;99.90;;;;;;5067486;28;20367;-65
2021/03/17 06:08:18;;;;;;;5.50;0.40;;;4.00;99.90;;;;;;5067751;28;20082;-65
2021/03/17 06:10:44;;;;;;;5.75;0.57;;;3.90;99.90;;;;;;5063494;28;20037;-65
2021/03/17 06:13:11;;;;;;;4.22;0.98;;;3.90;99.90;;;;;;5067998;28;20491;-65
2021/03/17 06:15:39;;;;;;;3.13;0.38;;;4.00;99.90;;;;;;5067260;28;20029;-65
2021/03/17 06:18:16;;;;;;;3.03;0.52;;;4.00;99.90;;;;;;5068868;28;20032;-65
2021/03/17 06:20:43;;;;;;;4.80;0.65;;;4.00;99.90;;;;;;5066912;28;20040;-65
2021/03/17 06:23:09;;;;;;;5.20;0.40;;;4.00;99.90;;;;;;5066621;28;20075;-65
2021/03/17 06:25:35;;;;;;;4.35;0.70;;;4.00;99.90;;;;;;5067691;28;20032;-65
2021/03/17 06:28:03;;;;;;;6.43;0.40;;;4.10;99.90;;;;;;5067815;28;20037;-65
2021/03/17 06:30:29;;;;;;;4.60;0.50;;;4.20;99.90;;;;;;5064844;28;20099;-65
2021/03/17 06:32:54;;;;;;;4.72;0.63;;;4.20;99.90;;;;;;5064572;28;20483;-65
2021/03/17 06:35:23;;;;;;;8.15;1.38;;;4.20;99.90;;;;;;5068657;28;20036;-65
2021/03/17 06:37:50;;;;;;;4.00;0.50;;;4.30;99.90;;;;;;5068666;28;20415;-65
2021/03/17 06:40:36;;;;;;;11.18;0.68;;;4.30;99.90;;;;;;5067385;28;20040;-65
2021/03/17 06:43:05;;;;;;;5.30;0.57;;;4.40;99.90;;;;;;5068671;28;20124;-65
2021/03/17 06:45:37;;;;;;;3.20;0.50;;;4.40;99.90;;;;;;5069360;28;20478;-65
2021/03/17 06:48:21;;;;;;;8.07;0.55;;;4.50;99.90;;;;;;5065633;28;20483;-65
2021/03/17 06:51:01;;;;;;;2.80;0.30;;;4.50;99.90;;;;;;5065315;28;20045;-65
2021/03/17 06:53:47;;;;;;;5.50;0.60;;;4.50;99.90;;;;;;5069310;28;20063;-65
2021/03/17 06:56:17;;;;;;;4.18;0.68;;;4.60;99.90;;;;;;5068045;28;20490;-65
2021/03/17 06:58:51;;;;;;;5.60;1.30;;;4.60;99.90;;;;;;5069607;28;20037;-65
2021/03/17 07:01:32;;;;;;;6.90;0.68;;;5.00;99.90;;;;;;5068830;28;20044;-65
2021/03/17 07:04:14;;;;;;;11.80;1.10;;;5.50;99.60;;;;;;5068908;28;20451;-65
2021/03/17 07:06:46;;;;;;;11.90;0.90;;;5.60;98.80;;;;;;5064405;28;20100;-65
2021/03/17 07:09:19;;;;;;;50.50;5.55;;;5.60;98.40;;;;;;5067699;28;20048;-65
2021/03/17 07:11:50;;;;;;;10.05;0.93;;;5.60;98.80;;;;;;5062606;28;20556;-65
2021/03/17 07:14:26;;;;;;;9.15;0.73;;;5.40;98.40;;;;;;5065557;28;20028;-65
2021/03/17 07:16:52;;;;;;;;;;;5.40;98.40;;;;;;5062924;28;20024;-65
2021/03/17 07:19:38;;;;;;;7.45;0.70;;;5.50;98.50;;;;;;5066934;28;19963;-65
2021/03/17 07:22:07;;;;;;;9.10;1.30;;;5.40;98.50;;;;;;5067638;28;20032;-65
2021/03/17 07:24:33;;;;;;;5.90;0.47;;;5.40;98.50;;;;;;5066527;28;20107;-65
2021/03/17 07:27:19;;;;;;;8.40;1.15;;;5.40;98.40;;;;;;5069102;28;20033;-65
2021/03/17 07:30:05;;;;;;;;;;;5.50;98.40;;;;;;5063459;28;20041;-65
2021/03/17 07:32:55;;;;;;;5.05;0.65;;;5.70;98.40;;;;;;5064243;28;20563;-65
2021/03/17 07:35:38;;;;;;;5.15;0.73;;;5.80;97.90;;;;;;5066949;28;20100;-65
2021/03/17 07:38:07;;;;;;;5.43;1.23;;;5.80;97.80;;;;;;5066408;28;20511;-65
2021/03/17 07:40:36;;;;;;;11.75;1.23;;;5.70;98.00;;;;;;5062916;28;20040;-65
2021/03/17 07:43:02;;;;;;;6.40;1.25;;;5.70;97.80;;;;;;5066898;28;20037;-65
2021/03/17 07:45:31;;;;;;;7.03;1.13;;;5.70;97.60;;;;;;5064605;28;20547;-65
2021/03/17 07:47:58;;;;;;;5.18;0.63;;;5.70;97.70;;;;;;5063642;28;20032;-65
2021/03/17 07:50:25;;;;;;;11.10;1.08;;;5.70;97.70;;;;;;5067180;28;20070;-66
2021/03/17 07:52:52;;;;;;;11.15;0.68;;;5.70;97.50;;;;;;5064313;28;20037;-66
2021/03/17 07:55:19;;;;;;;10.80;0.70;;;5.70;98.00;;;;;;5066547;28;20110;-66
2021/03/17 07:57:45;;;;;;;19.85;1.45;;;5.70;97.90;;;;;;5064752;28;20032;-65
2021/03/17 08:00:12;;;;;;;7.43;1.13;;;5.80;97.90;;;;;;5066880;28;20495;-66
2021/03/17 08:02:39;;;;;;;6.22;1.33;;;5.80;97.40;;;;;;5063365;28;20040;-66
2021/03/17 08:05:06;;;;;;;10.68;1.30;;;5.80;97.50;;;;;;5066753;28;20029;-65
2021/03/17 08:07:35;;;;;;;15.40;1.02;;;5.90;96.50;;;;;;5061492;28;20475;-65
2021/03/17 08:10:03;;;;;;;14.75;1.88;;;5.80;96.30;;;;;;5065191;28;20070;-65
2021/03/17 08:12:29;;;;;;;9.02;1.40;;;5.90;95.90;;;;;;5062513;28;20029;-65
2021/03/17 08:14:55;;;;;;;21.05;1.67;;;5.90;95.90;;;;;;5066531;28;20532;-65
2021/03/17 08:17:33;;;;;;;8.98;0.98;;;5.90;96.30;;;;;;5067808;28;20036;-65
2021/03/17 08:20:23;;;;;;;8.40;0.90;;;6.00;95.70;;;;;;5065263;28;20036;-66
2021/03/17 08:22:51;;;;;;;12.27;2.75;;;6.00;95.10;;;;;;5066052;28;20040;-66
2021/03/17 08:25:42;;;;;;;11.68;1.30;;;6.10;95.70;;;;;;5064877;28;20037;-65
2021/03/17 08:28:22;;;;;;;8.70;1.25;;;6.10;94.30;;;;;;5064452;28;20066;-65
2021/03/17 08:30:50;;;;;;;7.43;1.10;;;6.30;95.20;;;;;;5063051;28;20110;-66
2021/03/17 08:33:39;;;;;;;10.27;1.25;;;6.50;93.10;;;;;;5067768;28;20048;-66
2021/03/17 08:36:10;;;;;;;13.75;1.48;;;6.80;94.50;;;;;;5064882;28;20037;-66
2021/03/17 08:38:47;;;;;;;10.25;1.17;;;7.10;94.40;;;;;;5063369;28;20064;-66
2021/03/17 08:41:14;;;;;;;6.32;0.90;;;7.40;93.50;;;;;;5065936;28;20037;-66
2021/03/17 08:43:42;;;;;;;6.18;1.15;;;7.60;93.00;;;;;;5062144;28;20070;-66
2021/03/17 08:46:12;;;;;;;8.52;1.50;;;7.60;92.40;;;;;;5062142;28;20041;-66
2021/03/17 08:48:59;;;;;;;9.00;1.10;;;7.40;91.70;;;;;;5063138;28;20043;-66
2021/03/17 08:51:47;;;;;;;13.80;1.05;;;7.20;90.50;;;;;;5064859;28;20040;-66
2021/03/17 08:54:34;;;;;;;10.85;1.55;;;7.10;92.30;;;;;;5064119;28;20045;-65
2021/03/17 08:57:05;;;;;;;9.73;0.88;;;7.00;92.00;;;;;;5063224;28;20062;-66
2021/03/17 08:59:40;;;;;;;12.20;1.60;;;7.00;92.80;;;;;;5065419;28;20042;-66
2021/03/17 09:02:20;;;;;;;11.05;1.60;;;7.00;92.80;;;;;;5065329;28;20029;-66
2021/03/17 09:04:48;;;;;;;9.77;1.00;;;7.10;92.00;;;;;;5064023;28;20029;-66
2021/03/17 09:07:14;;;;;;;9.68;0.82;;;6.80;91.80;;;;;;5065106;28;20483;-66
2021/03/17 09:09:56;;;;;;;10.52;0.90;;;7.00;93.20;;;;;;5066038;28;20047;-66
2021/03/17 09:12:27;;;;;;;9.43;1.25;;;7.50;93.80;;;;;;5062628;28;20376;-66
2021/03/17 09:15:14;;;;;;;10.50;1.77;;;7.50;93.30;;;;;;5061195;28;20108;-66
2021/03/17 09:17:58;;;;;;;12.82;1.92;;;7.20;93.10;;;;;;5063769;28;20071;-66
2021/03/17 09:20:33;;;;;;;16.70;2.38;;;7.10;93.30;;;;;;5065277;28;20043;-66
2021/03/17 09:23:10;;;;;;;6.45;1.00;;;7.10;94.20;;;;;;5063213;28;20126;-66
2021/03/17 09:25:46;;;;;;;9.82;1.20;;;6.90;93.40;;;;;;5061544;28;20063;-66
2021/03/17 09:28:22;;;;;;;6.70;0.90;;;7.00;93.20;;;;;;5065236;28;20036;-65
2021/03/17 09:31:02;;;;;;;7.85;1.13;;;7.00;93.50;;;;;;5060164;28;20048;-65
2021/03/17 09:33:30;;;;;;;52.67;2.20;;;7.20;94.30;;;;;;5061398;28;20041;-66
2021/03/17 09:36:27;;;;;;;8.90;0.95;;;7.10;91.90;;;;;;5060674;28;20770;-66
2021/03/17 09:38:54;;;;;;;9.93;0.98;;;7.20;92.30;;;;;;5044043;28;20056;-66
2021/03/17 09:41:28;;;;;;;7.22;1.17;;;7.30;92.70;;;;;;5060978;28;20049;-66
2021/03/17 09:44:07;;;;;;;8.90;1.20;;;7.30;92.70;;;;;;5060551;28;20429;-66
2021/03/17 09:46:41;;;;;;;10.27;0.93;;;7.20;91.80;;;;;;5063576;28;20046;-65
2021/03/17 09:49:19;;;;;;;8.20;1.77;;;7.20;92.30;;;;;;5069508;28;20091;-66
2021/03/17 09:51:47;;;;;;;8.93;1.05;;;7.30;93.00;;;;;;5067501;28;20041;-66
2021/03/17 09:54:15;;;;;;;11.45;1.20;;;7.30;92.70;;;;;;5062326;28;20040;-65
2021/03/17 09:56:48;;;;;;;6.57;1.23;;;7.30;92.40;;;;;;5064757;28;20044;-66
2021/03/17 09:59:18;;;;;;;13.02;1.30;;;7.30;92.20;;;;;;5064812;28;20403;-66
2021/03/17 10:02:05;;;;;;;7.18;1.13;;;7.30;92.60;;;;;;5063107;28;20029;-65
2021/03/17 10:04:33;;;;;;;13.13;2.20;;;7.20;92.10;;;;;;5064180;28;20040;-65
2021/03/17 10:07:02;;;;;;;7.88;0.93;;;7.10;92.10;;;;;;5062321;28;20376;-66
2021/03/17 10:09:33;;;;;;;5.70;0.60;;;7.00;91.30;;;;;;5045608;28;20028;-65
2021/03/17 10:12:06;;;;;;;5.43;0.65;;;7.10;90.70;;;;;;5065061;28;20041;-65
2021/03/17 10:14:33;;;;;;;9.88;1.33;;;7.20;90.90;;;;;;5067404;28;20041;-65
2021/03/17 10:17:01;;;;;;;5.53;0.73;;;7.30;91.30;;;;;;5061941;28;20033;-65
2021/03/17 10:19:27;;;;;;;7.40;0.60;;;7.20;90.60;;;;;;5063901;28;20051;-65
2021/03/17 10:21:54;;;;;;;5.30;0.80;;;7.10;90.30;;;;;;5065152;28;20036;-65
2021/03/17 10:24:47;;;;;;;8.10;0.70;;;7.00;90.70;;;;;;5065635;28;20037;-65
2021/03/17 10:27:33;;;;;;;11.27;1.17;;;6.90;91.20;;;;;;5038176;28;20487;-66
2021/03/17 10:30:02;;;;;;;4.90;0.68;;;6.90;90.70;;;;;;5067887;28;20041;-65
2021/03/17 10:32:28;;;;;;;6.25;0.88;;;6.90;91.90;;;;;;5050124;28;20431;-65
2021/03/17 10:34:54;;;;;;;7.93;0.73;;;6.90;92.00;;;;;;5064438;28;20048;-65
2021/03/17 10:37:22;;;;;;;8.38;0.98;;;7.00;91.60;;;;;;5063066;28;20040;-65
2021/03/17 10:39:50;;;;;;;7.72;1.17;;;7.00;92.20;;;;;;5063061;28;20064;-66
2021/03/17 10:42:22;;;;;;;6.07;0.60;;;7.10;92.70;;;;;;5062086;28;20545;-65
2021/03/17 10:45:09;;;;;;;11.10;1.13;;;7.20;92.50;;;;;;5064585;28;20052;-66
2021/03/17 10:47:37;;;;;;;9.48;1.10;;;7.20;91.80;;;;;;5066416;28;20036;-65
2021/03/17 10:50:05;;;;;;;7.38;0.80;;;7.20;91.80;;;;;;5063618;28;20068;-65
2021/03/17 10:52:36;;;;;;;7.22;1.00;;;7.20;91.90;;;;;;5065686;28;20052;-65
2021/03/17 10:55:17;;;;;;;10.98;0.93;;;7.30;90.90;;;;;;5060412;28;20127;-65
2021/03/17 10:57:44;;;;;;;9.95;1.85;;;7.30;91.10;;;;;;5060591;28;20036;-65
2021/03/17 11:00:27;;;;;;;6.15;0.85;;;7.30;92.10;;;;;;5063923;28;20068;-65
2021/03/17 11:02:54;;;;;;;11.95;1.05;;;7.30;89.40;;;;;;5061919;28;20158;-65
2021/03/17 11:05:20;;;;;;;8.20;0.80;;;7.30;90.90;;;;;;5062047;28;20037;-65
2021/03/17 11:08:04;;;;;;;9.27;1.10;;;7.30;91.70;;;;;;5062371;28;20039;-66
2021/03/17 11:10:42;;;;;;;10.43;0.90;;;7.40;91.90;;;;;;5062110;28;20056;-65
2021/03/17 11:13:17;;;;;;;8.48;1.30;;;7.30;91.10;;;;;;5061479;28;20090;-65
2021/03/17 11:15:58;;;;;;;8.63;0.80;;;7.30;91.50;;;;;;5058231;28;20517;-65
2021/03/17 11:18:31;;;;;;;8.60;0.93;;;7.30;91.40;;;;;;5059778;28;20113;-65
2021/03/17 11:21:01;;;;;;;7.13;1.08;;;7.40;91.30;;;;;;5059218;28;20060;-65
2021/03/17 11:23:38;;;;;;;7.25;1.02;;;7.30;90.70;;;;;;5062318;28;20415;-65
2021/03/17 11:26:06;;;;;;;7.60;0.70;;;7.30;87.70;;;;;;5059054;28;20545;-65
2021/03/17 11:28:38;;;;;;;7.80;1.00;;;7.20;86.80;;;;;;5047380;28;20044;-65
2021/03/17 11:31:07;;;;;;;5.97;0.80;;;7.20;86.80;;;;;;5064304;28;20053;-65
2021/03/17 11:33:35;;;;;;;7.40;0.90;;;7.30;91.00;;;;;;5066619;28;20044;-65
2021/03/17 11:36:02;;;;;;;6.20;0.80;;;7.30;88.90;;;;;;5063051;28;20036;-65
2021/03/17 11:38:29;;;;;;;7.80;0.85;;;7.30;90.70;;;;;;5062941;28;20134;-65
2021/03/17 11:40:58;;;;;;;8.95;0.85;;;7.40;90.90;;;;;;5060237;28;20041;-66
2021/03/17 11:43:26;;;;;;;8.77;1.45;;;7.50;91.50;;;;;;5065410;28;20033;-65
2021/03/17 11:45:53;;;;;;;10.35;0.90;;;7.60;90.10;;;;;;5060265;28;20044;-65
2021/03/17 11:48:20;;;;;;;11.85;1.50;;;7.60;90.00;;;;;;5062556;28;20043;-65
2021/03/17 11:50:50;;;;;;;6.35;0.75;;;7.50;87.60;;;;;;5062854;28;20040;-65
2021/03/17 11:53:17;;;;;;;5.97;0.90;;;7.50;88.10;;;;;;5065247;28;20125;-65
2021/03/17 11:55:44;;;;;;;5.18;0.63;;;7.40;87.70;;;;;;5062559;28;20047;-65
2021/03/17 11:58:10;;;;;;;13.77;0.90;;;7.30;83.30;;;;;;5060776;28;20052;-65
2021/03/17 12:00:36;;;;;;;3.50;0.40;;;7.30;83.60;;;;;;5043454;28;20028;-65
2021/03/17 12:03:03;;;;;;;7.00;0.85;;;7.30;85.80;;;;;;5060958;28;20044;-65
2021/03/17 12:05:29;;;;;;;9.52;0.75;;;7.50;89.10;;;;;;5061340;28;20059;-65
2021/03/17 12:07:55;;;;;;;13.38;0.98;;;7.70;88.90;;;;;;5064193;28;20044;-65
2021/03/17 12:10:22;;;;;;;5.30;0.80;;;7.60;87.30;;;;;;5063604;28;20502;-65
2021/03/17 12:12:48;;;;;;;10.90;1.33;;;7.70;86.80;;;;;;5065300;28;20107;-65
2021/03/17 12:15:17;;;;;;;8.55;1.55;;;8.00;90.40;;;;;;5064034;28;20540;-65
2021/03/17 12:17:43;;;;;;;5.28;0.60;;;8.30;87.60;;;;;;5063019;28;20055;-65
2021/03/17 12:20:09;;;;;;;6.00;0.88;;;8.40;84.50;;;;;;5060764;28;20426;-66
2021/03/17 12:22:37;;;;;;;5.85;0.70;;;8.30;77.90;;;;;;5061009;28;20041;-66
2021/03/17 12:25:07;;;;;;;5.82;0.60;;;8.00;83.10;;;;;;5061934;28;20074;-65
2021/03/17 12:27:34;;;;;;;2.92;0.80;;;8.00;84.60;;;;;;5058640;28;20105;-65
2021/03/17 12:30:00;;;;;;;5.55;0.80;;;7.90;85.10;;;;;;5061750;28;20044;-65
2021/03/17 12:32:26;;;;;;;7.15;0.82;;;8.10;86.40;;;;;;5062658;28;20056;-65
2021/03/17 12:34:53;;;;;;;3.78;0.70;;;8.30;86.10;;;;;;5062099;28;20036;-65
2021/03/17 12:37:19;;;;;;;6.60;1.00;;;8.50;85.20;;;;;;5061953;28;20039;-65
2021/03/17 12:39:45;;;;;;;5.57;0.95;;;8.60;86.20;;;;;;5061287;28;20245;-65
2021/03/17 12:42:10;;;;;;;6.13;0.80;;;8.40;82.30;;;;;;5059245;28;20037;-65
2021/03/17 12:44:37;;;;;;;5.15;0.90;;;8.30;81.30;;;;;;5062589;28;20033;-65
2021/03/17 12:47:04;;;;;;;5.30;0.70;;;8.40;86.00;;;;;;5060964;28;20051;-65
2021/03/17 12:49:31;;;;;;;4.70;0.90;;;8.50;85.20;;;;;;5065906;28;20064;-65
2021/03/17 12:51:57;;;;;;;3.92;0.70;;;8.50;81.20;;;;;;5067142;28;20043;-65
2021/03/17 12:54:23;;;;;;;4.05;0.80;;;8.40;80.80;;;;;;5051991;28;20041;-65
2021/03/17 12:56:49;;;;;;;6.53;0.60;;;8.40;82.90;;;;;;5066784;28;20043;-65
2021/03/17 12:59:14;;;;;;;7.18;1.10;;;8.50;85.40;;;;;;5065873;28;20119;-65
2021/03/17 13:01:40;;;;;;;3.72;0.80;;;8.60;83.30;;;;;;5066274;28;20033;-65
2021/03/17 13:04:07;;;;;;;4.18;0.70;;;8.80;85.30;;;;;;5060672;28;20037;-65
2021/03/17 13:06:34;;;;;;;5.35;0.77;;;8.70;84.90;;;;;;5062174;28;20475;-65
2021/03/17 13:09:03;;;;;;;3.70;0.57;;;8.80;85.00;;;;;;5045769;28;20114;-65
2021/03/17 13:11:31;;;;;;;2.83;0.40;;;8.80;82.30;;;;;;5065716;28;20044;-65